Time;durP1;ratioP1;P1;durP2;ratioP2;P2;SDS_P1;SDS_P2;PMS_P1;PMS_P2;Temp;Humidity;BMP_temperature;BMP_pressure;BME280_temperature;BME280_humidity;BME280_pressure;Samples;Min_cycle;Max_cycle;Signal;HPM_P1;HPM_P2
2023/07/10 07:01:23;;;;;;;2.05;1.08;;;23.70;99.90;27.30;102109.00;;;;6252945;22;1371444;-72
2023/07/10 07:03:49;;;;;;;1.10;1.10;;;24.10;99.90;28.30;102104.00;;;;6282067;22;20164;-71
2023/07/10 07:06:15;;;;;;;0.80;0.68;;;24.50;99.90;27.50;102115.00;;;;6282319;22;20140;-69
2023/07/10 07:08:49;;;;;;;0.10;0.10;;;24.80;99.90;26.70;102119.00;;;;6281905;22;20144;-71
2023/07/10 07:11:16;;;;;;;0.35;0.35;;;24.20;99.90;29.80;102052.00;;;;6282306;22;20518;-69
2023/07/10 07:13:42;;;;;;;1.13;1.13;;;25.30;99.90;33.00;102061.00;;;;6282025;22;20573;-72
2023/07/10 07:16:08;;;;;;;1.45;0.70;;;28.00;99.90;31.00;102093.00;;;;6282274;22;20144;-71
2023/07/10 07:18:33;;;;;;;0.47;0.47;;;28.50;99.90;29.20;102120.00;;;;6256771;22;20160;-69
2023/07/10 07:21:02;;;;;;;4.22;1.83;;;27.20;99.90;29.50;102117.00;;;;6282404;22;20210;-69
2023/07/10 07:23:31;;;;;;;1.55;0.95;;;26.40;99.90;27.90;102130.00;;;;6282006;22;20171;-69
2023/07/10 07:25:57;;;;;;;0.35;0.35;;;25.10;99.90;33.00;102092.00;;;;6281883;22;20577;-71
2023/07/10 07:28:24;;;;;;;1.25;0.32;;;27.70;99.90;28.90;102140.00;;;;6282014;22;20172;-69
2023/07/10 07:30:50;;;;;;;0.10;0.10;;;26.60;99.90;32.10;102102.00;;;;6309077;22;20160;-71
2023/07/10 07:33:18;;;;;;;2.30;1.20;;;27.50;99.90;29.60;102135.00;;;;6282171;22;20199;-71
2023/07/10 07:35:47;;;;;;;0.45;0.45;;;27.70;99.90;28.40;102155.00;;;;6281706;22;20577;-69
2023/07/10 07:38:15;;;;;;;1.35;0.60;;;26.20;99.90;30.00;102135.00;;;;6256626;22;20291;-69
2023/07/10 07:40:41;;;;;;;0.10;0.10;;;26.20;99.90;29.30;102153.00;;;;6282285;22;20140;-69
2023/07/10 07:43:08;;;;;;;0.10;0.10;;;26.60;99.90;32.30;102064.00;;;;6308896;22;20167;-72
2023/07/10 07:45:34;;;;;;;0.10;0.10;;;27.70;99.90;33.50;102082.00;;;;6282003;22;20145;-71
2023/07/10 07:47:59;;;;;;;5.97;2.17;;;29.20;99.90;36.20;102048.00;;;;6281896;22;20137;-70
2023/07/10 07:50:26;;;;;;;0.20;0.20;;;30.90;99.90;30.00;102119.00;;;;6281928;22;20144;-72
2023/07/10 07:52:51;;;;;;;0.10;0.10;;;28.70;99.90;29.90;102131.00;;;;6282117;22;20145;-71
2023/07/10 07:55:17;;;;;;;2.28;0.98;;;27.30;99.90;29.60;102131.00;;;;6281748;22;20601;-69
2023/07/10 07:57:44;;;;;;;0.10;0.10;;;26.80;99.90;30.90;102108.00;;;;6282145;22;20227;-71
2023/07/10 08:00:11;;;;;;;0.38;0.30;;;26.70;99.90;30.30;102111.00;;;;6241914;22;20172;-71
2023/07/10 08:02:37;;;;;;;0.10;0.10;;;26.90;99.90;30.20;102091.00;;;;6225960;22;20181;-71
2023/07/10 08:05:03;;;;;;;0.30;0.30;;;26.60;99.90;33.10;102081.00;;;;6250795;22;20255;-71
2023/07/10 08:07:29;;;;;;;0.28;0.28;;;28.20;99.90;33.80;102070.00;;;;6250699;22;20134;-71
2023/07/10 08:09:55;;;;;;;0.10;0.10;;;29.60;99.90;31.60;102082.00;;;;6225829;22;20223;-71
2023/07/10 08:12:26;;;;;;;0.60;0.60;;;28.10;99.90;29.60;102131.00;;;;6277590;22;20141;-71
2023/07/10 08:14:51;;;;;;;1.20;1.10;;;27.70;99.90;31.10;102074.00;;;;6251150;22;20207;-71
2023/07/10 08:17:17;;;;;;;0.52;0.30;;;28.00;99.90;28.80;102148.00;;;;6250733;22;20145;-71
2023/07/10 08:19:43;;;;;;;0.20;0.20;;;26.80;99.90;32.80;102102.00;;;;6250948;22;20152;-71
2023/07/10 08:22:09;;;;;;;0.20;0.20;;;28.20;99.90;33.00;102089.00;;;;6225471;22;20262;-71
2023/07/10 08:24:35;;;;;;;0.68;0.68;;;29.30;99.90;28.40;102156.00;;;;6278134;22;20592;-70
2023/07/10 08:27:01;;;;;;;0.68;0.68;;;26.80;99.90;29.10;102168.00;;;;6277866;22;20149;-71
2023/07/10 08:29:30;;;;;;;0.10;0.10;;;26.60;99.90;29.50;102160.00;;;;6250737;22;20165;-70
2023/07/10 08:31:59;;;;;;;0.35;0.35;;;26.30;99.90;33.50;102106.00;;;;6225478;22;20207;-71
2023/07/10 08:34:27;;;;;;;0.10;0.10;;;28.20;99.90;32.80;102101.00;;;;6250671;22;20148;-71
2023/07/10 08:36:54;;;;;;;0.10;0.10;;;29.20;99.90;31.60;102118.00;;;;6225247;22;20153;-71
2023/07/10 08:39:22;;;;;;;0.10;0.10;;;28.50;99.90;35.30;102064.00;;;;6225536;22;20160;-71
2023/07/10 08:42:11;;;;;;;0.10;0.10;;;30.40;99.90;37.60;102072.00;;;;6225195;22;20157;-69
2023/07/10 08:44:38;;;;;;;0.10;0.10;;;32.20;99.90;33.70;102091.00;;;;6225090;22;20184;-71
2023/07/10 08:47:16;;;;;;;0.10;0.10;;;31.00;99.90;36.90;102098.00;;;;6250852;22;20198;-69
2023/07/10 08:49:54;;;;;;;0.10;0.10;;;32.20;99.90;32.40;102149.00;;;;6250835;22;20141;-70
2023/07/10 08:52:52;;;;;;;0.10;0.10;;;29.80;99.90;32.50;102145.00;;;;6252211;22;20597;-70
2023/07/10 08:55:29;;;;;;;0.10;0.10;;;28.40;99.90;35.30;102122.00;;;;6251066;22;20141;-71
2023/07/10 08:57:59;;;;;;;0.35;0.35;;;30.70;99.90;33.60;102109.00;;;;6225272;22;20523;-71
2023/07/10 09:00:27;;;;;;;0.10;0.10;;;30.30;99.90;33.70;102091.00;;;;6267098;22;20172;-71
2023/07/10 09:03:36;;;;;;;0.10;0.10;;;30.20;99.90;32.70;102067.00;;;;6281049;22;20593;-71
2023/07/10 09:06:03;;;;;;;0.10;0.10;;;29.40;99.90;34.60;102073.00;;;;6277128;22;20185;-71
2023/07/10 09:08:32;;;;;;;0.10;0.10;;;30.10;99.90;34.90;102091.00;;;;6281297;22;20182;-71
2023/07/10 09:11:12;;;;;;;0.10;0.10;;;30.90;99.90;35.60;102080.00;;;;6281258;22;20596;-71
2023/07/10 09:13:42;;;;;;;0.10;0.10;;;32.40;99.90;30.00;102141.00;;;;6281574;22;20231;-70
2023/07/10 09:16:17;;;;;;;0.95;0.90;;;28.40;99.90;34.40;102104.00;;;;6255392;22;20246;-71
2023/07/10 09:18:59;;;;;;;0.10;0.10;;;29.90;99.90;29.90;102163.00;;;;6308269;22;20190;-70
2023/07/10 09:21:31;;;;;;;0.10;0.10;;;28.20;99.90;31.80;102159.00;;;;6308596;22;20224;-71
2023/07/10 09:24:02;;;;;;;0.10;0.10;;;28.20;99.90;32.50;102101.00;;;;6280908;22;20140;-71
2023/07/10 09:26:33;;;;;;;0.10;0.10;;;28.90;99.90;29.30;102171.00;;;;6255105;22;20214;-70
2023/07/10 09:29:11;;;;;;;0.70;0.22;;;27.50;99.90;30.00;102170.00;;;;6255558;22;20152;-71
2023/07/10 09:32:15;;;;;;;0.10;0.10;;;27.50;99.90;32.00;102154.00;;;;6308269;22;20136;-70
2023/07/10 09:34:54;;;;;;;0.43;0.43;;;27.30;99.90;32.80;102147.00;;;;6304483;22;20193;-71
2023/07/10 09:37:34;;;;;;;4.45;0.35;;;29.00;99.90;30.70;102167.00;;;;6255400;22;20160;-71
2023/07/10 09:40:20;;;;;;;0.10;0.10;;;28.10;99.90;33.40;102113.00;;;;6307977;22;20505;-72
2023/07/10 09:42:50;;;;;;;0.10;0.10;;;29.10;99.90;33.10;102139.00;;;;6307642;22;20164;-71
2023/07/10 09:45:16;;;;;;;0.90;0.90;;;29.60;99.90;35.40;102109.00;;;;6281225;22;20136;-71
2023/07/10 09:47:50;;;;;;;0.60;0.57;;;31.00;99.90;33.30;102136.00;;;;6255145;22;20206;-72
2023/07/10 09:50:21;;;;;;;0.52;0.52;;;30.80;99.90;31.70;102115.00;;;;6256209;22;20148;-71
2023/07/10 09:53:03;;;;;;;0.10;0.10;;;28.70;99.90;33.80;102136.00;;;;6280721;22;20149;-71
2023/07/10 09:55:36;;;;;;;0.10;0.10;;;29.20;99.90;34.10;102137.00;;;;6251523;22;20164;-71
2023/07/10 09:58:03;;;;;;;9.20;1.10;;;29.70;99.90;31.30;102147.00;;;;6281322;22;20156;-71
2023/07/10 10:00:30;;;;;;;0.85;0.57;;;28.30;99.90;30.00;102158.00;;;;6307918;22;20471;-71
2023/07/10 10:03:25;;;;;;;0.10;0.10;;;27.30;99.90;30.50;102146.00;;;;6254550;22;20507;-71
2023/07/10 10:05:57;;;;;;;2.20;1.08;;;26.60;99.90;28.90;102175.00;;;;6258563;22;20160;-71
2023/07/10 10:08:31;;;;;;;0.43;0.43;;;26.40;99.90;27.80;102186.00;;;;6254943;22;20573;-71
2023/07/10 10:11:09;;;;;;;0.10;0.10;;;25.60;99.90;31.50;102147.00;;;;6280436;22;20145;-71
2023/07/10 10:13:56;;;;;;;0.55;0.45;;;26.70;99.90;32.20;102136.00;;;;6280660;22;20136;-71
2023/07/10 10:16:47;;;;;;;0.17;0.17;;;27.90;99.90;31.80;102145.00;;;;6281455;22;20144;-71
2023/07/10 10:19:23;;;;;;;0.10;0.10;;;27.60;99.90;30.70;102154.00;;;;6279941;22;20160;-71
2023/07/10 10:34:06;;;;;;;0.30;0.30;;;30.30;99.90;34.50;102139.00;;;;5070206;28;21085;-70
2023/07/10 10:36:45;;;;;;;0.10;0.10;;;30.60;99.90;36.70;102113.00;;;;5036644;28;20206;-70
2023/07/10 10:39:37;;;;;;;0.10;0.10;;;31.90;99.90;33.30;102115.00;;;;5032701;28;20272;-69
2023/07/10 10:42:43;;;;;;;0.15;0.15;;;30.50;99.90;35.50;102103.00;;;;5043274;28;20206;-69
2023/07/10 10:45:28;;;;;;;1.02;0.93;;;31.10;99.90;33.50;102082.00;;;;5050233;28;20588;-71
2023/07/10 10:48:40;;;;;;;0.20;0.20;;;31.50;99.90;31.80;102122.00;;;;5048819;28;20178;-71
2023/07/10 10:51:27;;;;;;;0.10;0.10;;;30.30;99.90;32.80;102112.00;;;;5032493;28;20179;-70
2023/07/10 10:54:24;;;;;;;0.10;0.10;;;28.80;99.90;32.50;102107.00;;;;5044576;28;20217;-70
2023/07/10 10:57:26;;;;;;;0.65;0.22;;;29.30;99.90;32.40;102109.00;;;;5049134;28;20220;-70
2023/07/10 11:00:33;;;;;;;6.13;1.60;;;29.60;99.90;28.90;102146.00;;;;5048483;28;20232;-70
2023/07/10 11:03:37;;;;;;;0.10;0.10;;;28.10;99.90;30.00;102141.00;;;;5043472;28;20203;-70
2023/07/10 11:06:44;;;;;;;1.63;0.60;;;27.60;99.90;31.20;102137.00;;;;5065474;28;20223;-70
2023/07/10 11:09:34;;;;;;;0.10;0.10;;;28.00;99.90;30.80;102150.00;;;;5032511;28;20210;-70
2023/07/10 11:12:02;;;;;;;0.20;0.20;;;27.80;99.90;32.70;102114.00;;;;5031998;28;20206;-70
2023/07/10 11:14:28;;;;;;;0.10;0.10;;;28.90;99.90;34.40;102079.00;;;;5032154;28;20620;-71
2023/07/10 11:17:10;;;;;;;3.50;0.20;;;30.00;99.90;31.50;102075.00;;;;5048234;28;20273;-71
2023/07/10 11:19:37;;;;;;;0.10;0.10;;;29.60;99.90;34.20;102105.00;;;;5048502;28;20672;-71
2023/07/10 11:22:11;;;;;;;0.10;0.10;;;30.30;99.90;30.50;102120.00;;;;5048320;28;20185;-71
2023/07/10 11:24:37;;;;;;;0.20;0.20;;;28.90;99.90;31.90;102102.00;;;;5048747;28;20194;-71
2023/07/10 11:27:22;;;;;;;0.20;0.20;;;29.10;99.90;33.90;102085.00;;;;5048450;28;20185;-71
2023/07/10 11:30:20;;;;;;;0.17;0.17;;;30.20;99.90;31.10;102103.00;;;;5048254;28;20213;-71
2023/07/10 11:33:19;;;;;;;2.40;2.30;;;29.10;99.90;33.90;102075.00;;;;5048158;28;20214;-71
2023/07/10 11:36:16;;;;;;;0.10;0.10;;;30.60;99.90;32.30;102090.00;;;;5031340;28;20190;-71
2023/07/10 11:39:10;;;;;;;0.10;0.10;;;29.80;99.90;33.00;102074.00;;;;5041384;28;20167;-71
2023/07/10 11:41:42;;;;;;;1.10;1.02;;;28.90;99.90;34.90;102039.00;;;;5048428;28;20193;-71
2023/07/10 11:44:12;;;;;;;0.77;0.77;;;30.50;99.90;35.20;102062.00;;;;5039451;28;20179;-71
2023/07/10 11:47:11;;;;;;;0.98;0.17;;;31.90;99.90;33.70;102039.00;;;;5018090;28;20656;-71
2023/07/10 11:49:54;;;;;;;0.10;0.10;;;30.80;99.90;36.60;102056.00;;;;5020957;28;20191;-71
2023/07/10 11:52:20;;;;;;;0.10;0.10;;;32.10;99.90;31.30;102050.00;;;;5035000;28;20268;-71
2023/07/10 11:54:48;;;;;;;0.70;0.68;;;29.60;99.90;31.10;102084.00;;;;5034805;28;20689;-71
2023/07/10 11:57:35;;;;;;;1.63;0.85;;;28.50;99.90;31.80;102082.00;;;;5035542;28;20696;-71
2023/07/10 12:00:04;;;;;;;0.63;0.50;;;28.90;99.90;30.20;102093.00;;;;5034385;28;20265;-70
2023/07/10 12:02:41;;;;;;;1.70;0.50;;;28.00;99.90;30.30;102090.00;;;;5034629;28;20222;-71
2023/07/10 12:05:29;;;;;;;0.25;0.25;;;27.80;99.90;31.00;102063.00;;;;5034590;28;20232;-70
2023/07/10 12:08:19;;;;;;;3.60;1.10;;;27.90;99.90;30.30;102078.00;;;;5035128;28;20552;-71
2023/07/10 12:10:50;;;;;;;0.20;0.20;;;27.50;99.90;31.20;102072.00;;;;5035474;28;21185;-70
2023/07/10 12:13:27;;;;;;;0.10;0.10;;;27.60;99.90;31.90;102026.00;;;;5034093;28;20218;-71
2023/07/10 12:15:55;;;;;;;0.10;0.10;;;28.00;99.90;33.90;102048.00;;;;5034213;28;20199;-71
2023/07/10 12:18:31;;;;;;;0.10;0.10;;;29.10;99.90;33.30;102043.00;;;;5034029;28;20214;-73
2023/07/10 12:21:04;;;;;;;0.10;0.10;;;29.40;99.90;33.20;102039.00;;;;5034030;28;20182;-71
2023/07/10 12:23:32;;;;;;;0.10;0.10;;;29.50;99.90;33.20;102037.00;;;;5034415;28;20241;-70
2023/07/10 12:25:59;;;;;;;0.20;0.20;;;29.20;99.90;33.70;101994.00;;;;5033936;28;20190;-71
2023/07/10 12:28:26;;;;;;;0.20;0.20;;;29.40;99.90;33.60;102024.00;;;;5034250;28;20190;-71
2023/07/10 12:30:55;;;;;;;0.73;0.65;;;29.60;99.90;31.00;102052.00;;;;5015452;28;20609;-70
2023/07/10 12:33:48;;;;;;;0.52;0.38;;;28.50;99.90;31.00;102057.00;;;;5059237;28;20210;-70
2023/07/10 12:36:29;;;;;;;0.20;0.20;;;27.90;99.90;30.80;102059.00;;;;5034123;28;20187;-70
2023/07/10 12:38:59;;;;;;;0.10;0.10;;;27.70;99.90;31.30;102046.00;;;;5034811;28;20240;-70
2023/07/10 12:41:25;;;;;;;0.10;0.10;;;27.50;99.90;32.10;102037.00;;;;5017534;28;20286;-70
2023/07/10 12:44:02;;;;;;;0.17;0.17;;;27.80;99.90;31.70;102042.00;;;;5035074;28;20179;-70
2023/07/10 12:46:30;;;;;;;0.10;0.10;;;27.90;99.90;31.10;102048.00;;;;5034798;28;20657;-70
2023/07/10 12:49:15;;;;;;;1.45;0.63;;;27.80;99.90;32.50;102028.00;;;;5033570;28;20197;-70
2023/07/10 12:51:47;;;;;;;0.45;0.45;;;28.10;99.90;32.50;102020.00;;;;5033470;28;20580;-70
2023/07/10 12:54:37;;;;;;;0.10;0.10;;;28.40;99.90;32.00;102025.00;;;;5033659;28;20241;-70
2023/07/10 12:57:30;;;;;;;1.13;0.77;;;28.30;99.90;30.60;102027.00;;;;5024725;28;20183;-70
2023/07/10 13:00:05;;;;;;;0.32;0.30;;;28.10;99.90;30.70;101998.00;;;;5033709;28;20721;-70
2023/07/10 13:02:50;;;;;;;0.20;0.20;;;27.50;99.90;30.10;102041.00;;;;5033441;28;20186;-70
2023/07/10 13:05:30;;;;;;;0.65;0.52;;;27.30;99.90;30.40;102006.00;;;;5033394;28;20605;-70
2023/07/10 13:08:02;;;;;;;2.33;1.90;;;27.30;99.90;29.70;102035.00;;;;5032865;28;20187;-70
2023/07/10 13:10:43;;;;;;;3.13;2.92;;;27.00;99.90;31.40;102028.00;;;;5033127;28;20187;-70
2023/07/10 13:13:21;;;;;;;0.55;0.55;;;27.10;99.90;30.90;102033.00;;;;5032646;28;20620;-71
2023/07/10 13:15:48;;;;;;;1.85;0.52;;;27.40;99.90;32.60;102013.00;;;;5033186;28;20265;-71
2023/07/10 13:18:24;;;;;;;0.15;0.15;;;28.10;99.90;30.80;102016.00;;;;5016242;28;20213;-70
2023/07/10 13:20:50;;;;;;;0.52;0.52;;;28.00;99.90;32.00;102011.00;;;;5026501;28;20182;-71
2023/07/10 13:23:22;;;;;;;0.10;0.10;;;27.80;99.90;32.60;101989.00;;;;5016916;28;20588;-70
2023/07/10 13:25:55;;;;;;;1.75;0.75;;;28.30;99.90;31.10;101998.00;;;;5032862;28;20183;-70
2023/07/10 13:28:39;;;;;;;0.77;0.20;;;28.30;99.90;33.50;101982.00;;;;5032904;28;20270;-70
2023/07/10 13:31:05;;;;;;;0.10;0.10;;;29.00;99.90;33.90;101982.00;;;;5032444;28;20186;-71
2023/07/10 13:33:32;;;;;;;0.30;0.30;;;29.50;99.90;32.80;101981.00;;;;5032561;28;20193;-70
2023/07/10 13:35:59;;;;;;;0.10;0.10;;;29.50;99.90;33.90;101979.00;;;;5032463;28;20194;-70
2023/07/10 13:38:28;;;;;;;0.10;0.10;;;29.60;99.90;31.20;101983.00;;;;5032839;28;20719;-70
2023/07/10 13:40:54;;;;;;;0.10;0.10;;;28.50;99.90;31.70;101989.00;;;;5033730;28;20222;-70
2023/07/10 13:43:22;;;;;;;1.02;1.00;;;28.40;99.90;30.50;101996.00;;;;5016084;28;20202;-70
2023/07/10 13:46:01;;;;;;;0.50;0.50;;;28.00;99.90;30.40;102003.00;;;;5032480;28;20218;-70
2023/07/10 13:48:27;;;;;;;0.90;0.90;;;27.70;99.90;31.90;102008.00;;;;5032629;28;20189;-70
2023/07/10 13:50:54;;;;;;;1.10;0.70;;;28.10;99.90;30.30;102004.00;;;;5032553;28;20186;-71
2023/07/10 13:53:23;;;;;;;0.88;0.85;;;27.60;99.90;31.60;102006.00;;;;5032395;28;20238;-71
2023/07/10 13:55:51;;;;;;;0.57;0.57;;;27.80;99.90;33.40;101982.00;;;;5032031;28;20179;-71
2023/07/10 13:58:24;;;;;;;1.70;0.63;;;28.80;99.90;30.90;101990.00;;;;5032352;28;20269;-70
2023/07/10 14:01:17;;;;;;;0.98;0.98;;;28.10;99.90;31.90;101982.00;;;;5026981;28;20186;-70
2023/07/10 14:03:45;;;;;;;0.10;0.10;;;28.20;99.90;30.70;101989.00;;;;5032200;28;20199;-71
2023/07/10 14:06:23;;;;;;;0.30;0.30;;;27.80;99.90;32.60;101979.00;;;;5032054;28;20182;-71
2023/07/10 14:08:51;;;;;;;0.10;0.10;;;28.10;99.90;33.60;101960.00;;;;5032873;28;20183;-70
2023/07/10 14:11:22;;;;;;;0.17;0.17;;;28.80;99.90;33.20;101966.00;;;;5032049;28;20613;-71
2023/07/10 14:13:48;;;;;;;0.10;0.10;;;29.20;99.90;31.90;101983.00;;;;5033278;28;20175;-70
2023/07/10 14:16:28;;;;;;;2.30;0.47;;;28.50;99.90;32.00;101986.00;;;;5032114;28;20179;-70
2023/07/10 14:18:55;;;;;;;0.17;0.17;;;28.50;99.90;32.30;101983.00;;;;5049725;28;20177;-70
2023/07/10 14:21:21;;;;;;;0.10;0.10;;;28.40;99.90;32.20;101963.00;;;;5032016;28;20549;-70
2023/07/10 14:24:09;;;;;;;0.20;0.20;;;28.40;99.90;31.50;101975.00;;;;5015230;28;20190;-70
2023/07/10 14:26:40;;;;;;;0.10;0.10;;;28.10;99.90;30.60;101960.00;;;;5027316;28;20175;-70
2023/07/10 14:29:06;;;;;;;0.10;0.10;;;27.90;99.90;32.60;101968.00;;;;5019107;28;20213;-70
2023/07/10 14:31:32;;;;;;;0.10;0.10;;;28.20;99.90;33.50;101957.00;;;;5031858;28;20248;-70
2023/07/10 14:34:00;;;;;;;0.10;0.10;;;28.90;99.90;32.90;101953.00;;;;5031812;28;20182;-70
2023/07/10 14:36:27;;;;;;;4.78;1.15;;;28.90;99.90;32.60;101955.00;;;;5032859;28;20187;-70
2023/07/10 14:38:53;;;;;;;0.10;0.10;;;29.00;99.90;31.80;101959.00;;;;5032948;28;20237;-70
2023/07/10 14:41:23;;;;;;;0.65;0.40;;;28.30;99.90;32.80;101947.00;;;;5032053;28;20167;-70
2023/07/10 14:43:59;;;;;;;0.47;0.47;;;28.50;99.90;33.30;101940.00;;;;5013656;28;20278;-70
2023/07/10 14:46:33;;;;;;;0.75;0.75;;;29.00;99.90;33.30;101905.00;;;;5032916;28;20252;-71
2023/07/10 14:49:15;;;;;;;0.50;0.50;;;29.40;99.90;32.90;101930.00;;;;5031788;28;20205;-70
2023/07/10 14:51:42;;;;;;;0.10;0.10;;;29.50;99.90;32.00;101936.00;;;;5031701;28;20207;-70
2023/07/10 14:54:13;;;;;;;0.65;0.57;;;28.90;99.90;32.60;101920.00;;;;5031449;28;20175;-70
2023/07/10 14:56:50;;;;;;;0.40;0.40;;;28.70;99.90;32.10;101925.00;;;;5032064;28;20546;-70
2023/07/10 14:59:23;;;;;;;0.10;0.10;;;28.60;99.90;33.10;101910.00;;;;5015610;28;20183;-71
2023/07/10 15:01:49;;;;;;;0.10;0.10;;;28.90;99.90;34.10;101901.00;;;;5031541;28;20717;-70
2023/07/10 15:04:15;;;;;;;1.27;0.60;;;29.30;99.90;32.60;101903.00;;;;5032837;28;20298;-70
2023/07/10 15:06:44;;;;;;;0.10;0.10;;;29.20;99.90;32.10;101911.00;;;;5031570;28;20301;-71
2023/07/10 15:09:29;;;;;;;0.47;0.47;;;28.70;99.90;32.20;101903.00;;;;5031679;28;20531;-70
2023/07/10 15:11:55;;;;;;;0.20;0.20;;;28.40;99.90;32.70;101913.00;;;;5015161;28;20740;-71
2023/07/10 15:14:21;;;;;;;0.20;0.20;;;28.40;99.90;33.80;101888.00;;;;5031641;28;20266;-70
2023/07/10 15:16:49;;;;;;;0.20;0.20;;;28.90;99.90;32.20;101889.00;;;;5031720;28;20191;-70
2023/07/10 15:19:23;;;;;;;2.50;1.83;;;28.80;99.90;31.20;101916.00;;;;5034810;28;20217;-70
2023/07/10 15:21:48;;;;;;;0.10;0.10;;;28.10;99.90;32.20;101907.00;;;;5034916;28;20547;-70
2023/07/10 15:24:24;;;;;;;1.25;0.68;;;28.30;99.90;32.10;101897.00;;;;5036466;28;20182;-70
2023/07/10 15:26:50;;;;;;;0.10;0.10;;;28.50;99.90;31.60;101913.00;;;;5035373;28;20186;-70
2023/07/10 15:29:24;;;;;;;0.10;0.10;;;28.10;99.90;31.60;101914.00;;;;5036423;28;20195;-70
2023/07/10 15:32:08;;;;;;;0.10;0.10;;;28.10;99.90;32.70;101902.00;;;;5034846;28;20215;-70
2023/07/10 15:34:36;;;;;;;0.88;0.35;;;28.30;99.90;33.40;101894.00;;;;5036063;28;20277;-70
2023/07/10 15:37:02;;;;;;;0.10;0.10;;;28.90;99.90;33.00;101890.00;;;;5018445;28;20539;-70
2023/07/10 15:39:29;;;;;;;0.10;0.10;;;28.80;99.90;32.90;101883.00;;;;5023826;28;20187;-70
2023/07/10 15:41:55;;;;;;;0.17;0.15;;;28.80;99.90;32.50;101886.00;;;;5032078;28;20182;-70
2023/07/10 15:44:21;;;;;;;0.10;0.10;;;28.60;99.90;33.30;101859.00;;;;5033240;28;20576;-70
2023/07/10 15:46:48;;;;;;;0.10;0.10;;;28.90;99.90;32.40;101878.00;;;;5040179;28;20198;-70
2023/07/10 15:49:21;;;;;;;0.73;0.40;;;28.80;99.90;33.50;101870.00;;;;5031913;28;20735;-70
2023/07/10 15:51:55;;;;;;;1.58;1.48;;;29.10;99.90;32.90;101859.00;;;;5034293;28;20213;-70
2023/07/10 15:54:22;;;;;;;0.30;0.30;;;28.90;99.90;32.00;101870.00;;;;5035120;28;20189;-70
2023/07/10 15:56:50;;;;;;;0.95;0.65;;;28.60;99.90;32.50;101862.00;;;;5035672;28;20214;-70
2023/07/10 15:59:19;;;;;;;0.10;0.10;;;28.60;99.90;31.70;101874.00;;;;5034706;28;20175;-70
2023/07/10 16:01:50;;;;;;;0.20;0.20;;;28.40;99.90;32.00;101864.00;;;;5035450;28;20253;-70
2023/07/10 16:04:24;;;;;;;0.20;0.20;;;28.30;99.90;31.70;101860.00;;;;5034442;28;20233;-70
2023/07/10 16:06:52;;;;;;;1.60;1.55;;;28.00;99.90;31.20;101847.00;;;;5034143;28;20195;-71
2023/07/10 16:09:28;;;;;;;0.10;0.10;;;27.90;99.90;31.30;101853.00;;;;5018396;28;20526;-70
2023/07/10 16:11:54;;;;;;;0.30;0.30;;;28.00;99.90;32.00;101850.00;;;;5035502;28;20214;-70
2023/07/10 16:14:25;;;;;;;0.30;0.30;;;28.10;99.90;30.90;101851.00;;;;5034339;28;20182;-70
2023/07/10 16:16:51;;;;;;;0.10;0.10;;;27.90;99.90;31.00;101857.00;;;;5034269;28;20193;-70
2023/07/10 16:19:22;;;;;;;0.10;0.10;;;27.70;99.90;31.70;101839.00;;;;5017466;28;20277;-71
2023/07/10 16:21:54;;;;;;;0.10;0.10;;;27.90;99.90;32.30;101836.00;;;;5034123;28;20237;-70
2023/07/10 16:24:20;;;;;;;0.10;0.10;;;28.10;99.90;31.70;101842.00;;;;5034280;28;20217;-70
2023/07/10 16:26:47;;;;;;;0.10;0.10;;;28.00;99.90;32.90;101838.00;;;;5033908;28;20214;-70
2023/07/10 16:29:13;;;;;;;0.10;0.10;;;28.40;99.90;31.50;101817.00;;;;5034282;28;20609;-71
2023/07/10 16:31:42;;;;;;;0.10;0.10;;;28.00;99.90;32.30;101835.00;;;;5034928;28;20298;-70
2023/07/10 16:34:19;;;;;;;0.10;0.10;;;28.10;99.90;32.10;101835.00;;;;5033698;28;20269;-70
2023/07/10 16:36:47;;;;;;;0.10;0.10;;;28.10;99.90;31.50;101834.00;;;;5059102;28;20233;-70
2023/07/10 16:39:22;;;;;;;0.40;0.40;;;28.00;99.90;32.10;101830.00;;;;5033989;28;20179;-70
2023/07/10 16:41:55;;;;;;;1.55;1.02;;;28.10;99.90;32.20;101811.00;;;;5033603;28;20544;-70
2023/07/10 16:44:29;;;;;;;0.10;0.10;;;28.30;99.90;32.10;101823.00;;;;5029735;28;20244;-70
2023/07/10 16:46:54;;;;;;;0.93;0.47;;;28.20;99.90;32.30;101823.00;;;;5025415;28;20171;-70
2023/07/10 16:49:25;;;;;;;0.10;0.10;;;28.30;99.90;33.50;101800.00;;;;5017289;28;20260;-70
2023/07/10 16:51:50;;;;;;;0.10;0.10;;;28.70;99.90;31.40;101826.00;;;;5033346;28;20230;-70
2023/07/10 16:54:16;;;;;;;2.08;0.70;;;28.40;99.90;31.40;101834.00;;;;5034932;28;20226;-70
2023/07/10 16:56:42;;;;;;;0.30;0.30;;;28.10;99.90;31.70;101819.00;;;;5034769;28;20189;-70
2023/07/10 16:59:35;;;;;;;0.10;0.10;;;28.30;99.90;33.10;101793.00;;;;5033192;28;20191;-70
2023/07/10 17:02:02;;;;;;;0.52;0.52;;;28.50;99.90;32.60;101812.00;;;;5027997;28;20202;-70
2023/07/10 17:04:28;;;;;;;0.10;0.10;;;28.60;99.90;33.50;101803.00;;;;5016805;28;20248;-70
2023/07/10 17:07:00;;;;;;;0.20;0.20;;;28.90;99.90;32.80;101807.00;;;;5033367;28;20171;-70
2023/07/10 17:09:32;;;;;;;0.20;0.20;;;28.90;99.90;31.80;101816.00;;;;5034636;28;20194;-70
2023/07/10 17:11:57;;;;;;;0.10;0.10;;;28.30;99.90;32.40;101812.00;;;;5032781;28;20206;-70
2023/07/10 17:14:23;;;;;;;0.40;0.40;;;28.40;99.90;31.20;101810.00;;;;5033549;28;20572;-70
2023/07/10 17:16:49;;;;;;;0.10;0.10;;;28.10;99.90;32.30;101802.00;;;;5049640;28;20244;-71
2023/07/10 17:19:15;;;;;;;0.10;0.10;;;28.30;99.90;31.30;101803.00;;;;5034269;28;20543;-70
2023/07/10 17:21:43;;;;;;;0.60;0.60;;;28.10;99.90;30.90;101816.00;;;;5039450;28;20668;-70
2023/07/10 17:24:18;;;;;;;0.65;0.65;;;27.70;99.90;30.80;101810.00;;;;5029700;28;20181;-70
2023/07/10 17:26:45;;;;;;;0.10;0.10;;;27.60;99.90;31.70;101775.00;;;;5030641;28;20656;-70
2023/07/10 17:29:29;;;;;;;0.20;0.20;;;27.70;99.90;32.10;101782.00;;;;5032779;28;20252;-70
2023/07/10 17:31:54;;;;;;;0.28;0.28;;;28.00;99.90;31.90;101795.00;;;;5033581;28;20221;-70
2023/07/10 17:34:20;;;;;;;0.10;0.10;;;28.00;99.90;31.00;101755.00;;;;5032599;28;20546;-70
2023/07/10 17:36:51;;;;;;;0.20;0.20;;;27.80;99.90;31.80;101789.00;;;;5034197;28;20388;-70
2023/07/10 17:39:28;;;;;;;0.20;0.20;;;27.90;99.90;31.60;101758.00;;;;5032613;28;20187;-70
2023/07/10 17:41:54;;;;;;;0.10;0.10;;;27.80;99.90;31.70;101795.00;;;;5033591;28;20194;-70
2023/07/10 17:44:24;;;;;;;0.10;0.10;;;27.90;99.90;31.80;101795.00;;;;5033761;28;20175;-70
2023/07/10 17:46:57;;;;;;;0.15;0.15;;;27.90;99.90;32.00;101789.00;;;;5032441;28;20220;-70
2023/07/10 17:49:30;;;;;;;0.25;0.25;;;28.00;99.90;32.00;101792.00;;;;5016680;28;20175;-70
2023/07/10 17:51:56;;;;;;;0.13;0.13;;;28.10;99.90;31.60;101800.00;;;;5032338;28;20206;-70
2023/07/10 17:54:29;;;;;;;0.28;0.28;;;28.00;99.90;31.70;101796.00;;;;5045585;28;20188;-70
2023/07/10 17:57:04;;;;;;;0.10;0.10;;;27.90;99.90;31.20;101774.00;;;;5032456;28;20190;-70
2023/07/10 17:59:31;;;;;;;0.10;0.10;;;27.60;99.90;31.70;101787.00;;;;5022308;28;20182;-70
2023/07/10 18:01:59;;;;;;;0.10;0.10;;;27.70;99.90;31.40;101789.00;;;;5033049;28;20248;-70
2023/07/10 18:04:26;;;;;;;0.30;0.30;;;27.70;99.90;31.70;101796.00;;;;5032365;28;20532;-70
2023/07/10 18:06:53;;;;;;;0.10;0.10;;;27.70;99.90;32.60;101786.00;;;;5032385;28;20183;-70
2023/07/10 18:09:26;;;;;;;0.10;0.10;;;28.10;99.90;32.90;101765.00;;;;5032367;28;20187;-70
2023/07/10 18:11:54;;;;;;;0.10;0.10;;;28.40;99.90;32.50;101780.00;;;;5061956;28;20208;-70
2023/07/10 18:14:22;;;;;;;0.20;0.20;;;28.40;99.90;31.30;101791.00;;;;5032134;28;20187;-70
2023/07/10 18:16:48;;;;;;;0.20;0.20;;;27.80;99.90;32.20;101805.00;;;;5029929;28;20246;-71
2023/07/10 18:19:16;;;;;;;0.10;0.10;;;28.00;99.90;32.90;101808.00;;;;5032283;28;20191;-70
2023/07/10 18:21:50;;;;;;;0.15;0.15;;;28.40;99.90;31.90;101826.00;;;;5032506;28;20236;-70
2023/07/10 18:24:23;;;;;;;0.55;0.55;;;28.30;99.90;31.70;101786.00;;;;5031817;28;20261;-70
2023/07/10 18:26:50;;;;;;;0.20;0.20;;;28.00;99.90;31.00;101834.00;;;;5027320;28;20193;-70